Salida, CO

9:23 PM MST on February 13, 2016 (GMT -0700)
Elk Trail | | Change Station
CLOSE
Current Station
Personal Weather Station
Location: Salida, CO
Elevation: 8130 ft
Nearby Weather Stations

Elev 8130 ft 38.55 °N, 106.12 °W | Updated 1 minute ago

Partly Cloudy
Partly Cloudy
43.0 °F
Feels Like 37 °F
N
12.0
Wind Variable Wind from SSW
Gusts 21.0 mph

Today
High -- | Low -- °F
--% Chance of Precip.
Yesterday
High -- | Low -- °F
Precip. -- in
Pressure 30.15 in
Visibility 10.0 miles
Clouds Clear
Windchill 37 °F
Dew Point 9 °F
Humidity 24%
Rainfall 0.00 in
Snow Depth Not available.
6:58 AM 5:39 PM
Waxing Crescent, 37% visible
METAR KAEJ 140415Z AUTO 27011G18KT 10SM CLR 04/M12 A3015 RMK AO2 T00391118
Pressure 30.15 in
Visibility 10.0 miles
Clouds Clear
Windchill 37 °F
Dew Point 9 °F
Humidity 24%
Rainfall 0.00 in
Snow Depth Not available.
6:58 AM 5:39 PM
Waxing Crescent, 37% visible
METAR KAEJ 140415Z AUTO 27011G18KT 10SM CLR 04/M12 A3015 RMK AO2 T00391118

10-Day Weather Forecast

Almanac

Astronomy

Feb. 13, 2016 Rise Set
Actual Time
Civil Twilight
Nautical Twilight
Astronomical Twilight
Moon
Length of Visible Light
Length of Day
Tomorrow will be .
, % of the Moon is Illuminated

Today's Extremes

State Highs State Lows

Community

WunderPhotos

Upload Photos

1,892,746 photos uploaded!

WunderBlog® & News

Nearby

Air Quality

  Air Quality AQ Index Pollutant
Not available.

Snow Depth

Station Depth Elevation

Earthquake Activity

City Distance Mag. Time & Date
Minimum magnitude displayed is 2.5.

Coastal Water Temperatures

Place Temperature

Stations

Nearby Weather Stations

Station Location Temp. Windchill Dew Point Humidity Wind Precip. Elev Updated Type
                   

Watches & Warnings

There are currently no watches in effect.